Hub


Voltar

 INFORMAÇÕES METEOROLÓGICAS

METAR FOR RKSI


ADDS - METARS form results

(2047 UTC 16 February 2019)
Data provider http://aviationweather.gov/metar/data/
 
METAR text: RKSI 162030Z 32008KT CAVOK M04/M11 Q1026 NOSIG
Conditions at: RKSI (CHAJANG NI , KR) observed 2030 UTC 16 February 2019
Temperature: -4.0°C (25°F)
Dewpoint: -11.0°C (12°F) [RH = 58%]
Pressure (altimeter): 30.30 inches Hg (1026.0 mb)
Winds: from the NW (320 degrees) at 9 MPH (8 knots; 4.1 m/s)
Visibility: 6 or more miles (10+ km)
Ceiling: ceiling and visibility are OK
Clouds: unknown
Weather: no significant weather observed at this time

METAR text: RKSI 162000Z 32006KT CAVOK M05/M12 Q1026 NOSIG
Conditions at: RKSI (CHAJANG NI , KR) observed 2000 UTC 16 February 2019
Temperature: -5.0°C (23°F)
Dewpoint: -12.0°C (10°F) [RH = 58%]
Pressure (altimeter): 30.30 inches Hg (1026.0 mb)
Winds: from the NW (320 degrees) at 7 MPH (6 knots; 3.1 m/s)
Visibility: 6 or more miles (10+ km)
Ceiling: ceiling and visibility are OK
Clouds: unknown
Weather: no significant weather observed at this time

Forecast for: RKSI (CHAJANG NI , KR)
Text: TAF RKSI 161700Z 1618/1724 33012KT CAVOK TNM06/1621Z TX03/1706Z TNM03/1721Z
Forecast period: 1800 UTC 16 February 2019 to 0000 UTC 18 February 2019
Forecast type: FROM: standard forecast or significant change
Winds: from the NNW (330 degrees) at 14 MPH (12 knots; 6.2 m/s)
Visibility: 6 or more miles 10+ km)
Ceiling: unknown
Clouds: missing
Weather: no significant weather forecast for this period


 MAPA DO AEROPORTO


 INFORMAÇÕES DA PISTA

Pista 15L Tamanho da pista 12303 ft Largura da pista 197 ft
Elevação da pista 23 ft Ranhura da pista 0 ft Proa da pista 145
Pista 33R Tamanho da pista 12303 ft Largura da pista 197 ft
Elevação da pista 23 ft Ranhura da pista 0 ft Proa da pista 325
Pista 15R Tamanho da pista 12303 ft Largura da pista 197 ft
Elevação da pista 23 ft Ranhura da pista 0 ft Proa da pista 145
Pista 33L Tamanho da pista 12303 ft Largura da pista 197 ft
Elevação da pista 23 ft Ranhura da pista 0 ft Proa da pista 325
Pista 16 Tamanho da pista 13000 ft Largura da pista 197 ft
Elevação da pista 0 ft Ranhura da pista 0 ft Proa da pista 153
Pista 34 Tamanho da pista 13000 ft Largura da pista 197 ft
Elevação da pista 0 ft Ranhura da pista 0 ft Proa da pista 333

 FREQUÊNCIAS DO AEROPORTO

Tipo APP Nome SEOUL APP Frequência 120.8 MHZ
Tipo ATIS Nome ATIS Frequência 23.025 MHZ
Tipo CLD Nome CLNC DEL Frequência 121 MHZ
Tipo DEP Nome SEOUL DEP Frequência 121.35 MHZ
Tipo GND Nome GND Frequência 121.4 MHZ
Tipo RMP Nome RAMP CON Frequência 121.65 MHZ
Tipo TWR Nome TWR Frequência 118.2 MHZ

 AUXÍLIOS DE NAVEGAÇÃO PRÓXIMOS AO AEROPORTO

Tipo VOR-DME Nome Incheon Frequência 113800 KHZ